Tiempo atmosférico en la estación meteorológica de Olite/Erriberri, Navarra (390 m.)



Fecha
DESCASC
Temp. máxima en grados centígrados (hora)
DESCASC
Temp. mínima en grados centígrados (hora)
DESCASC
Temp. media en grados centígrados
DESCASC
Racha de viento máxima en m/sg (hora)
DESCASC
Velocidad máxima media en intervalos de 10 minutos(hora)
DESCASC
Precipitaciones diarias en mm
DESCASC
Precipitaciones de 00:00 a 06:00 en mm
DESCASC
Precipitaciones de 06:00 a 12:00 en mm
DESCASC
Precipitaciones de 12:00 a 18:00 en mm
DESCASC
Precipitaciones de 18:00 a 24:00 en mm
DESCASC
15-08-2019 24.4 (15:40) 16.2 (23:50) 20.3 10.83 (13:50) 6.39 (20:20) 1.6 0 0 0 1.6
14-08-2019 29.2 (15:40) 11.3 (00:00) 20.3 10.28 (19:00) 5.83 (18:30) 0 0 0 0 0
13-08-2019 22.3 (17:00) 14.1 (00:00) 18.2 11.94 (12:40) 6.39 (01:30) 0.4 0 0 0 0.4
12-08-2019 21.5 (15:40) 14.7 (00:00) 18.1 13.06 (17:10) 6.67 (16:20) 0 0 0 0 0
11-08-2019 24.7 (16:00) 16.8 (00:00) 20.8 10.28 (07:00) 6.67 (07:20) 0.6 0.2 0.4 0 0
10-08-2019 27.2 (17:10) 15.7 (00:00) 21.5 9.17 (19:00) 5 (18:30) 1.4 0 0 0 1.4
09-08-2019 33.8 (14:50) 19.2 (00:00) 26.5 12.22 (20:30) 7.5 (20:30) 10 0 0 0 10
08-08-2019 33.1 (18:20) 19.2 (00:00) 26.1 7.22 (01:50) 4.72 (01:30) 0 0 0 0 0
07-08-2019 30.8 (18:10) 19.2 (00:00) 25 12.5 (02:10) 5.83 (02:10) 0.2 0.2 0 0 0
06-08-2019 32.6 (17:00) 16.3 (00:00) 24.4 12.22 (22:40) 6.11 (22:10) 0.8 0 0 0 0.8
05-08-2019 33.9 (18:10) 17.3 (00:00) 25.6 8.61 (00:50) 4.72 (00:40) 0 0 0 0 0
04-08-2019 33.8 (17:30) 18.5 (00:00) 26.1 11.11 (22:40) 6.39 (22:40) 0 0 0 0 0
03-08-2019 34 (18:30) 13.4 (00:00) 23.7 8.89 (01:10) 5.56 (01:00) 0 0 0 0 0
02-08-2019 29.2 (17:00) 16.9 (00:00) 23.1 8.89 (01:30) 4.72 (22:40) 0 0 0 0 0
01-08-2019 29.9 (17:40) 16.9 (00:00) 23.4 12.22 (19:30) 6.67 (19:40) 3.4 0 3.4 0 0
31-07-2019 27.8 (18:10) 12.1 (00:00) 19.9 7.78 (00:10) 4.72 (05:50) 0.2 0 0.2 0 0
30-07-2019 22.6 (14:50) 15.3 (00:00) 19 -- (--) -- (--) 0.6 0 0 0 0.6
29-07-2019 31.3 (17:40) 11.9 (00:00) 21.6 13.33 (21:20) 6.94 (19:40) 0 0 0 0 0
28-07-2019 23.9 (17:30) 13.1 (00:00) 18.5 8.89 (18:40) 4.72 (12:00) 0.6 0.2 0.2 0.2 0
27-07-2019 20.8 (15:20) 14.7 (00:00) 17.7 10.56 (02:40) 6.67 (14:50) 0.6 0.2 0.2 0 0.2
26-07-2019 25.2 (12:50) 18.2 (00:00) 21.7 12.5 (18:30) 7.22 (18:40) 1.6 0.2 0.2 1 0.2
25-07-2019 36.1 (18:00) 21.7 (00:00) 28.9 14.44 (18:20) 7.5 (18:20) 0 0 0 0 0
24-07-2019 36.4 (17:20) 18.9 (00:00) 27.7 10.28 (19:40) 5.56 (19:40) -- 0.2 -- 0 0
23-07-2019 37 (16:30) 21.4 (00:00) 29.2 15 (20:50) 9.44 (20:50) 1.8 0 0 0 1.8
22-07-2019 36.4 (17:30) 20 (00:00) 28.2 7.5 (12:40) 4.72 (12:40) 0 0 0 0 0
21-07-2019 33.8 (18:00) 18.9 (00:00) 26.3 10.56 (22:40) 6.39 (22:40) 0 0 0 0 0
20-07-2019 33.7 (17:00) 18.3 (00:00) 26 11.67 (20:10) 5.83 (23:20) 0 0 0 0 0
19-07-2019 32.8 (17:50) 14.8 (00:00) 23.8 9.72 (02:20) 5.28 (01:50) 0 0 0 0 0

Gráficas

Temp. máximas Temp. mínimas Temp. medias Precipitaciones Rachas de viento máximas Velocidades máximas media en intervalos de 10 minutos

Datos horarios

Fecha y hora oficial Temperatura (ºC) Velocidad del viento (km/h) Dirección del viento Racha (km/h) Dirección de racha Precipitación (mm) Presión (hPa) Tendencia (hPa) Humedad (%)
2019-08-17 23:00:00 23.8 3 Norte 6 Noroeste 0 -- -- 64
2019-08-17 22:00:00 26.7 3 Noroeste 12 Norte 0 -- -- 52
2019-08-17 21:00:00 29.4 5 Norte 10 Norte 0 -- -- 45
2019-08-17 20:00:00 33 3 Norte 5 Norte 0 -- -- 40
2019-08-17 19:00:00 34.1 4 Norte 9 Noroeste 0 -- -- 32
2019-08-17 18:00:00 33.7 5 Norte 15 Este 0 -- -- 33
2019-08-17 17:00:00 33.9 4 Sudeste 14 Sur 0 -- -- 32
2019-08-17 16:00:00 33.3 5 Sudeste 14 Sur 0 -- -- 32
2019-08-17 15:00:00 32.1 8 Sudeste 19 Sudeste 0 -- -- 36
2019-08-17 14:00:00 30.8 8 Sudeste 28 Sudeste 0 -- -- 42
2019-08-17 13:00:00 29.1 13 Sudeste 27 Sudeste 0 -- -- 49
2019-08-17 12:00:00 27.9 10 Sudeste 22 Sudeste 0 -- -- 52
2019-08-17 11:00:00 25.8 13 Sudeste 25 Este 0 -- -- 58
2019-08-17 10:00:00 23.3 8 Sudeste 13 Sudeste 0 -- -- 61
2019-08-17 09:00:00 20.1 0 Calma 5 Oeste 0 -- -- 66
2019-08-17 08:00:00 16.8 2 Noroeste 8 Oeste 0 -- -- 76
2019-08-17 07:00:00 15.9 3 Norte 4 Norte 0 -- -- 83
2019-08-17 06:00:00 17.2 0 Calma 9 Oeste 0 -- -- 71
2019-08-17 05:00:00 18.7 5 Noroeste 10 Noroeste 0 -- -- 65
2019-08-17 04:00:00 19.9 6 Oeste 13 Noroeste 0 -- -- 62
2019-08-17 03:00:00 20.6 6 Noroeste 12 Norte 0 -- -- 66
2019-08-17 02:00:00 21.4 5 Noroeste 18 Noroeste 0 -- -- 62
2019-08-17 01:00:00 22.4 8 Norte 14 Norte 0 -- -- 62
2019-08-17 00:00:00 23.5 7 Noroeste 14 Norte 0 -- -- 56
2019-08-16 23:00:00 24.5 5 Norte 14 Noroeste 0 -- -- 53
2019-08-16 22:00:00 26 7 Norte 15 Norte 0 -- -- 47
2019-08-16 21:00:00 27.6 2 Noroeste 6 Sudoeste 0 -- -- 44
2019-08-16 20:00:00 30.9 4 Sur 8 Sudoeste 0 -- -- 30
2019-08-16 19:00:00 32.3 3 Sudoeste 10 Sudoeste 0 -- -- 27
2019-08-16 18:00:00 32.1 4 Sudoeste 13 Sur 0 -- -- 27
2019-08-16 17:00:00 31.1 6 Sudeste 14 Sudeste 0 -- -- 31
2019-08-16 16:00:00 30.1 4 Sudeste 15 Sudeste 0 -- -- 33
2019-08-16 15:00:00 28.7 5 Sur 16 Sudeste 0 -- -- 33
2019-08-16 14:00:00 26.6 3 Sudoeste 13 Sudoeste 0 -- -- 37
2019-08-16 13:00:00 24.3 7 Este 16 Sudeste 0 -- -- 45
2019-08-16 12:00:00 22.5 8 Sudeste 15 Sur 0 -- -- 48
2019-08-16 11:00:00 20.5 4 Sur 9 Sur 0 -- -- 50
2019-08-16 10:00:00 18.2 3 Sudeste 8 Noroeste 0 -- -- 57
2019-08-16 09:00:00 14.4 5 Norte 9 Noroeste 0 -- -- 73
2019-08-16 08:00:00 11.4 4 Noroeste 10 Oeste 0 -- -- 81
2019-08-16 07:00:00 11.2 5 Oeste 10 Oeste 0 -- -- 81
2019-08-16 06:00:00 11.3 4 Norte 9 Noroeste 0.2 -- -- 82
2019-08-16 05:00:00 13.4 7 Oeste 22 Noroeste 0 -- -- 75
2019-08-16 04:00:00 14.2 10 Noroeste 16 Noroeste 0 -- -- 75
2019-08-16 03:00:00 14.8 10 Noroeste 20 Noroeste 0 -- -- 73
2019-08-16 02:00:00 15.5 13 Noroeste 29 Noroeste 0 -- -- 70
2019-08-16 01:00:00 15.9 16 Noroeste 36 Noroeste 0 -- -- 69
2019-08-16 00:00:00 16.2 18 Noroeste 37 Noroeste 1 -- -- 69
2019-08-15 23:00:00 16.9 15 Noroeste 31 Noroeste 0.6 -- -- 68
2019-08-15 22:00:00 18.1 13 Noroeste 31 Noroeste 0 -- -- 61
2019-08-15 21:00:00 19.2 15 Noroeste 37 Noroeste 0 -- -- 58
2019-08-15 20:00:00 21 20 Norte 38 Noroeste 0 -- -- 52
2019-08-15 19:00:00 22.5 16 Norte 33 Noroeste 0 -- -- 48
2019-08-15 18:00:00 23.7 18 Norte 36 Norte 0 -- -- 46
2019-08-15 17:00:00 24.2 17 Norte 35 Norte 0 -- -- 44
2019-08-15 16:00:00 24 21 Norte 39 Norte 0 -- -- 44
2019-08-15 15:00:00 23.6 17 Norte 37 Norte 0 -- -- 48
2019-08-15 14:00:00 23.3 16 Norte 39 Norte 0 -- -- 48
2019-08-15 13:00:00 22.9 15 Norte 35 Norte 0 -- -- 53
2019-08-15 12:00:00 22.4 15 Norte 32 Norte 0 -- -- 58
2019-08-15 11:00:00 21.8 10 Norte 30 Norte 0 -- -- 60
2019-08-15 10:00:00 20.4 16 Norte 30 Norte 0 -- -- 68
2019-08-15 09:00:00 20.2 13 Norte 23 Norte 0 -- -- 72
2019-08-15 08:00:00 19.5 9 Norte 17 Norte 0 -- -- 75
2019-08-15 07:00:00 19 8 Noroeste 13 Noroeste 0 -- -- 76
2019-08-15 06:00:00 18.7 7 Norte 15 Noroeste 0 -- -- 78
2019-08-15 05:00:00 18.2 8 Noroeste 13 Noroeste 0 -- -- 80
2019-08-15 04:00:00 18.5 9 Noroeste 17 Noroeste 0 -- -- 77
2019-08-15 03:00:00 19 10 Noroeste 17 Noroeste 0 -- -- 74
2019-08-15 02:00:00 19.1 8 Noroeste 19 Noroeste 0 -- -- 73
2019-08-15 01:00:00 20 9 Noroeste 21 Norte 0 -- -- 69
2019-08-15 00:00:00 20.2 9 Noroeste 24 Noroeste 0 -- -- 66
2019-08-14 23:00:00 20.9 11 Norte 28 Norte 0 -- -- 63
2019-08-14 22:00:00 21.9 18 Norte 32 Norte 0 -- -- 58
2019-08-14 21:00:00 23.4 10 Norte 31 Norte 0 -- -- 50
2019-08-14 20:00:00 25.5 12 Norte 35 Norte 0 -- -- 40
2019-08-14 19:00:00 26.4 17 Norte 37 Norte 0 -- -- 39
2019-08-14 18:00:00 27.9 19 Norte 35 Norte 0 -- -- 37
2019-08-14 17:00:00 28.8 12 Norte 28 Norte 0 -- -- 34
2019-08-14 16:00:00 29.1 8 Norte 31 Noroeste 0 -- -- 33
2019-08-14 15:00:00 28.3 11 Noroeste 26 Oeste 0 -- -- 32
2019-08-14 14:00:00 26.8 14 Noroeste 26 Noroeste 0 -- -- 32
2019-08-14 13:00:00 25.3 7 Noroeste 18 Noroeste 0 -- -- 33
2019-08-14 12:00:00 23.1 4 Oeste 13 Noroeste 0 -- -- 36
2019-08-14 11:00:00 20 5 Noroeste 10 Noroeste 0 -- -- 50
2019-08-14 10:00:00 16.7 3 Norte 8 Norte 0 -- -- 62
2019-08-14 09:00:00 14.9 2 Nordeste 6 Sudeste 0 -- -- 72
2019-08-14 08:00:00 12.6 2 Oeste 7 Noroeste 0 -- -- 72
2019-08-14 07:00:00 11.3 5 Norte 13 Noroeste 0 -- -- 81
2019-08-14 06:00:00 13.4 9 Noroeste 15 Noroeste 0 -- -- 72
2019-08-14 05:00:00 13.3 8 Noroeste 14 Noroeste 0 -- -- 74
2019-08-14 04:00:00 13.5 6 Noroeste 20 Noroeste 0 -- -- 74
2019-08-14 03:00:00 14.1 9 Noroeste 21 Noroeste 0 -- -- 73
2019-08-14 02:00:00 14.7 12 Noroeste 19 Noroeste 0 -- -- 71
2019-08-14 01:00:00 15 10 Noroeste 22 Noroeste 0 -- -- 70
2019-08-14 00:00:00 15 9 Norte 22 Noroeste -- -- -- 72
2019-08-13 23:00:00 15.9 11 Noroeste 29 Norte 0.2 -- -- 69
2019-08-13 22:00:00 17.2 14 Noroeste 32 Noroeste 0 -- -- 64
2019-08-13 21:00:00 18.7 17 Noroeste 33 Norte 0 -- -- 56
2019-08-13 20:00:00 20.3 19 Norte 38 Norte 0 -- -- 51
2019-08-13 19:00:00 21.3 17 Norte 34 Norte 0 -- -- 45
2019-08-13 18:00:00 21.6 21 Norte 33 Noroeste 0 -- -- 45
2019-08-13 17:00:00 22.3 16 Norte 33 Norte 0 -- -- 43
2019-08-13 16:00:00 22 19 Norte 32 Norte 0 -- -- 44
2019-08-13 15:00:00 21.8 17 Noroeste 36 Noroeste 0 -- -- 46
2019-08-13 14:00:00 21.2 16 Noroeste 33 Noroeste 0 -- -- 44
2019-08-13 13:00:00 20.4 18 Noroeste 43 Noroeste 0 -- -- 46
2019-08-13 12:00:00 19.4 16 Norte 31 Noroeste 0 -- -- 53
2019-08-13 11:00:00 18.5 15 Noroeste 36 Noroeste 0 -- -- 52
2019-08-13 10:00:00 16.7 21 Noroeste 32 Noroeste 0 -- -- 59
2019-08-13 09:00:00 15.1 17 Noroeste 33 Noroeste 0 -- -- 69
2019-08-13 08:00:00 14.4 17 Noroeste 30 Noroeste 0 -- -- 73
2019-08-13 07:00:00 14.1 19 Noroeste 29 Noroeste 0 -- -- 73
2019-08-13 06:00:00 14.4 15 Noroeste 24 Noroeste 0 -- -- 71
2019-08-13 05:00:00 14.6 12 Noroeste 30 Norte 0 -- -- 69
2019-08-13 04:00:00 14.8 15 Norte 35 Noroeste 0 -- -- 68
2019-08-13 03:00:00 15.3 15 Noroeste 35 Norte 0 -- -- 66
2019-08-13 02:00:00 14.8 16 Norte 41 Noroeste 0 -- -- 71
2019-08-13 01:00:00 14.9 14 Noroeste 33 Norte 0 -- -- 68
2019-08-13 00:00:00 15 19 Norte 39 Norte 0 -- -- 67
2019-08-12 23:00:00 15.1 17 Noroeste 33 Noroeste 0 -- -- 68
2019-08-12 22:00:00 15.2 13 Norte 40 Norte 0 -- -- 69
2019-08-12 21:00:00 16.7 15 Noroeste 36 Noroeste 0 -- -- 60
2019-08-12 20:00:00 18.5 17 Norte 44 Noroeste 0 -- -- 55
2019-08-12 19:00:00 19.7 22 Noroeste 43 Norte 0 -- -- 51
2019-08-12 18:00:00 20.5 21 Norte 47 Norte 0 -- -- 47
2019-08-12 17:00:00 20.5 23 Norte 46 Norte 0 -- -- 49
2019-08-12 16:00:00 21.3 22 Norte 43 Noroeste 0 -- -- 47
2019-08-12 15:00:00 21 23 Norte 40 Norte 0 -- -- 45
2019-08-12 14:00:00 20.6 20 Norte 41 Norte 0 -- -- 49
2019-08-12 13:00:00 19.6 19 Norte 41 Norte 0 -- -- 53
2019-08-12 12:00:00 19 19 Norte 40 Noroeste 0 -- -- 51
2019-08-12 11:00:00 18.6 21 Norte 38 Noroeste 0 -- -- 54
2019-08-12 10:00:00 17.6 22 Noroeste 39 Noroeste 0 -- -- 57
2019-08-12 09:00:00 16.3 22 Noroeste 36 Noroeste 0 -- -- 61
2019-08-12 08:00:00 15.1 15 Noroeste 26 Noroeste 0 -- -- 65
2019-08-12 07:00:00 15.3 15 Noroeste 41 Noroeste 0 -- -- 71
2019-08-12 06:00:00 15.7 18 Noroeste 36 Noroeste 0 -- -- 71
2019-08-12 05:00:00 15.4 13 Noroeste 27 Noroeste 0 -- -- 74
2019-08-12 04:00:00 15.7 15 Noroeste 32 Noroeste 0 -- -- 73
2019-08-12 03:00:00 16.2 15 Noroeste 30 Norte 0 -- -- 70
2019-08-12 02:00:00 16.3 17 Norte 33 Norte 0 -- -- 71
2019-08-12 01:00:00 16.3 13 Norte 34 Noroeste 0 -- -- 72
2019-08-12 00:00:00 16.8 14 Noroeste 31 Noroeste 0 -- -- 71
2019-08-11 23:00:00 17.3 14 Noroeste 30 Noroeste 0 -- -- 72
2019-08-11 22:00:00 18.1 14 Noroeste 35 Noroeste 0 -- -- 69
2019-08-11 21:00:00 19.3 14 Norte 35 Norte 0 -- -- 64
2019-08-11 20:00:00 21.1 17 Norte 37 Norte 0 -- -- 57
2019-08-11 19:00:00 22.6 19 Norte 37 Norte 0 -- -- 50
2019-08-11 18:00:00 24 18 Norte 35 Norte 0 -- -- 48
2019-08-11 17:00:00 24.5 15 Norte 34 Norte 0 -- -- 48
2019-08-11 16:00:00 24.7 15 Norte 31 Norte 0 -- -- 45
2019-08-11 15:00:00 24.4 16 Norte 29 Norte 0 -- -- 52
2019-08-11 14:00:00 24.1 13 Norte 29 Noroeste 0 -- -- 52
2019-08-11 13:00:00 23.1 11 Norte 23 Noroeste 0 -- -- 58
2019-08-11 12:00:00 22.4 13 Noroeste 21 Noroeste 0 -- -- 59
2019-08-11 11:00:00 20.7 8 Norte 27 Norte 0 -- -- 69
2019-08-11 10:00:00 18.9 17 Norte 29 Norte 0 -- -- 75
2019-08-11 09:00:00 17.2 11 Noroeste 24 Noroeste 0.4 -- -- 84
2019-08-11 08:00:00 18.1 17 Noroeste 36 Noroeste 0 -- -- 74
2019-08-11 07:00:00 17.9 22 Noroeste 37 Noroeste 0 -- -- 76
2019-08-11 06:00:00 18.1 18 Noroeste 26 Noroeste 0 -- -- 75
2019-08-11 05:00:00 18.2 13 Noroeste 27 Oeste 0 -- -- 75
2019-08-11 04:00:00 17.9 13 Noroeste 27 Noroeste 0 -- -- 77
2019-08-11 03:00:00 18 10 Noroeste 25 Noroeste 0 -- -- 76
2019-08-11 02:00:00 18.2 14 Noroeste 27 Noroeste 0 -- -- 75
2019-08-11 01:00:00 18.4 15 Noroeste 30 Noroeste 0.2 -- -- 76
2019-08-11 00:00:00 18.5 15 Noroeste 33 Noroeste 0.6 -- -- 78
2019-08-10 23:00:00 19.2 14 Noroeste 28 Noroeste 0.8 -- -- 72
2019-08-10 22:00:00 20.2 12 Norte 27 Norte 0 -- -- 69
2019-08-10 21:00:00 21.6 14 Noroeste 26 Noroeste 0 -- -- 63
2019-08-10 20:00:00 23.7 14 Noroeste 30 Noroeste 0 -- -- 56
2019-08-10 19:00:00 25.6 17 Norte 33 Norte 0 -- -- 50
2019-08-10 18:00:00 26.7 17 Norte 31 Norte 0 -- -- 44
2019-08-10 17:00:00 27 13 Norte 22 Noroeste 0 -- -- 44
2019-08-10 16:00:00 26.6 10 Norte 28 Noroeste 0 -- -- 41
2019-08-10 15:00:00 26.1 9 Norte 20 Norte 0 -- -- 46
2019-08-10 14:00:00 25.1 10 Norte 23 Noroeste 0 -- -- 48
2019-08-10 13:00:00 24.8 9 Noroeste 21 Noroeste 0 -- -- 52
2019-08-10 12:00:00 23.6 8 Norte 21 Oeste 0 -- -- 61
2019-08-10 11:00:00 22.2 13 Noroeste 23 Noroeste 0 -- -- 66
2019-08-10 10:00:00 20.2 10 Noroeste 18 Noroeste 0 -- -- 75
2019-08-10 09:00:00 18.3 5 Noroeste 14 Noroeste 0 -- -- 82
2019-08-10 08:00:00 16.3 8 Noroeste 13 Noroeste 0 -- -- 88
2019-08-10 07:00:00 15.8 8 Noroeste 14 Noroeste 0 -- -- 88
2019-08-10 06:00:00 16 8 Noroeste 18 Noroeste 0 -- -- 85
2019-08-10 05:00:00 16.5 11 Noroeste 17 Norte 0 -- -- 82
2019-08-10 04:00:00 16.6 9 Noroeste 15 Noroeste 0 -- -- 80
2019-08-10 03:00:00 17 8 Noroeste 17 Noroeste 0 -- -- 78
2019-08-10 02:00:00 17.6 6 Noroeste 12 Noroeste 0 -- -- 80
2019-08-10 01:00:00 18.7 7 Noroeste 13 Noroeste 0 -- -- 76
2019-08-10 00:00:00 19.8 6 Noroeste 13 Norte 0 -- -- 68
2019-08-09 23:00:00 20.1 8 Norte 42 Oeste 0.4 -- -- 67
2019-08-09 22:00:00 22.3 26 Noroeste 40 Noroeste 0 -- -- 60
2019-08-09 21:00:00 22.5 6 Norte 44 Oeste 0.2 -- -- 76
2019-08-09 20:00:00 23.1 6 Nordeste 36 Sur 9.4 -- -- 80
2019-08-09 19:00:00 31 9 Noroeste 30 Noroeste 0 -- -- 41
2019-08-09 18:00:00 32.3 17 Noroeste 31 Noroeste 0 -- -- 36
2019-08-09 17:00:00 32.7 20 Noroeste 31 Oeste 0 -- -- 35
2019-08-09 16:00:00 32.2 3 Nordeste 12 Norte 0 -- -- 34
2019-08-09 15:00:00 33.6 5 Sudoeste 18 Sur 0 -- -- 30
2019-08-09 14:00:00 33.1 5 Oeste 14 Sur 0 -- -- 33
2019-08-09 13:00:00 32.4 7 Sur 22 Sur 0 -- -- 34
2019-08-09 12:00:00 31.3 10 Sur 23 Sudeste 0 -- -- 39
2019-08-09 11:00:00 29.7 12 Sudeste 19 Sudeste 0 -- -- 42
2019-08-09 10:00:00 28.3 8 Sudeste 15 Sudeste 0 -- -- 45
2019-08-09 09:00:00 25.4 8 Sudeste 13 Sudeste 0 -- -- 54
2019-08-09 08:00:00 21 5 Este 10 Este 0 -- -- 69
2019-08-09 07:00:00 20 5 Noroeste 9 Oeste 0 -- -- 73
2019-08-09 06:00:00 19.9 0 Calma 4 Noroeste 0 -- -- 73
2019-08-09 05:00:00 20.4 0 Calma 5 Oeste 0 -- -- 69
2019-08-09 04:00:00 21.5 0 Calma 5 Oeste 0 -- -- 66
2019-08-09 03:00:00 23.6 3 Norte 12 Sudeste 0 -- -- 59
2019-08-09 02:00:00 27.2 5 Sur 27 Sudeste 0 -- -- 44
2019-08-09 01:00:00 28.5 15 Sudeste 27 Sudeste 0 -- -- 40
2019-08-09 00:00:00 28.5 10 Sudeste 22 Sudeste 0 -- -- 40
2019-08-08 23:00:00 25.5 6 Sudeste 10 Sudeste 0 -- -- 53
2019-08-08 22:00:00 27 4 Este 5 Este 0 -- -- 52
2019-08-08 21:00:00 29.6 4 Sudeste 13 Sudeste 0 -- -- 47
2019-08-08 20:00:00 32.4 7 Sudeste 17 Sudeste 0 -- -- 36
2019-08-08 19:00:00 32.7 3 Este 16 Sudeste 0 -- -- 36
2019-08-08 18:00:00 32.4 3 Nordeste 9 Noroeste 0 -- -- 40
2019-08-08 17:00:00 33 5 Norte 11 Nordeste 0 -- -- 38
2019-08-08 16:00:00 32.7 4 Oeste 19 Sur 0 -- -- 34
2019-08-08 15:00:00 31.5 6 Este 21 Sudeste 0 -- -- 36
2019-08-08 14:00:00 30.2 9 Sudeste 16 Sur 0 -- -- 39
2019-08-08 13:00:00 29 8 Sudeste 14 Sudeste 0 -- -- 40
2019-08-08 12:00:00 27.7 5 Sur 17 Sudeste 0 -- -- 46
2019-08-08 11:00:00 26 10 Sudeste 17 Sudeste 0 -- -- 48
2019-08-08 10:00:00 25 8 Sur 14 Sur 0 -- -- 53
2019-08-08 09:00:00 23 3 Este 6 Este 0 -- -- 59
2019-08-08 08:00:00 19.6 2 Norte 6 Este 0 -- -- 75
2019-08-08 07:00:00 20 2 Sur 5 Sur 0 -- -- 74
2019-08-08 06:00:00 20.1 3 Noroeste 9 Nordeste 0 -- -- 71
2019-08-08 05:00:00 21.4 4 Noroeste 9 Noroeste 0 -- -- 63
2019-08-08 04:00:00 22.2 3 Oeste 10 Noroeste 0 -- -- 59
2019-08-08 03:00:00 22.6 6 Noroeste 17 Noroeste 0 -- -- 55
2019-08-08 02:00:00 22.6 11 Noroeste 26 Noroeste 0 -- -- 59
2019-08-08 01:00:00 24 4 Oeste 14 Noroeste 0 -- -- 53
2019-08-08 00:00:00 24.6 8 Noroeste 14 Noroeste 0 -- -- 52
2019-08-07 23:00:00 25 5 Noroeste 14 Noroeste 0 -- -- 52
2019-08-07 22:00:00 25.2 3 Noroeste 6 Noroeste 0 -- -- 54
2019-08-07 21:00:00 27.2 5 Noroeste 18 Noroeste 0 -- -- 46
2019-08-07 20:00:00 28.9 13 Noroeste 24 Noroeste 0 -- -- 37
2019-08-07 19:00:00 29.5 7 Noroeste 14 Oeste 0 -- -- 38
2019-08-07 18:00:00 30.5 5 Sur 12 Sur 0 -- -- 34
2019-08-07 17:00:00 30.3 3 Sudoeste 10 Oeste 0 -- -- 38
2019-08-07 16:00:00 30 7 Noroeste 23 Noroeste 0 -- -- 33
2019-08-07 15:00:00 30 8 Noroeste 25 Noroeste 0 -- -- 34
2019-08-07 14:00:00 28.9 6 Noroeste 22 Noroeste 0 -- -- 42
2019-08-07 13:00:00 27.1 8 Norte 19 Oeste 0 -- -- 46
2019-08-07 12:00:00 26.4 6 Norte 21 Noroeste 0 -- -- 47
2019-08-07 11:00:00 24.8 11 Noroeste 23 Noroeste 0 -- -- 54
2019-08-07 10:00:00 22.7 13 Noroeste 27 Noroeste 0 -- -- 61
2019-08-07 09:00:00 20.3 10 Noroeste 20 Noroeste 0 -- -- 72
2019-08-07 08:00:00 19.7 8 Noroeste 19 Oeste 0 -- -- 74
2019-08-07 07:00:00 19.4 11 Noroeste 19 Noroeste 0 -- -- 69
2019-08-07 06:00:00 19.4 10 Noroeste 23 Noroeste 0 -- -- 72
2019-08-07 05:00:00 19.4 10 Oeste 23 Noroeste 0 -- -- 75
2019-08-07 04:00:00 19.9 9 Noroeste 27 Norte 0 -- -- 74
2019-08-07 03:00:00 19.3 14 Norte 45 Norte 0 -- -- 78
2019-08-07 02:00:00 19.8 20 Noroeste 35 Noroeste 0 -- -- 77
2019-08-07 01:00:00 20.3 17 Noroeste 36 Noroeste 0.2 -- -- 77
2019-08-07 00:00:00 20.9 19 Noroeste 40 Norte 0.6 -- -- 75
2019-08-06 23:00:00 22.5 19 Norte 44 Norte 0.2 -- -- 72
2019-08-06 22:00:00 24.4 20 Norte 36 Norte 0 -- -- 64
2019-08-06 21:00:00 26.4 15 Norte 29 Norte 0 -- -- 58
2019-08-06 20:00:00 28.3 10 Norte 24 Norte 0 -- -- 53
2019-08-06 19:00:00 30.9 5 Noroeste 14 Noroeste 0 -- -- 37
2019-08-06 18:00:00 31.9 9 Noroeste 16 Noroeste 0 -- -- 35
2019-08-06 17:00:00 32.6 0 Calma 11 Noroeste 0 -- -- 34
2019-08-06 16:00:00 31.5 3 Nordeste 12 Sudeste 0 -- -- 37
2019-08-06 15:00:00 30.6 4 Sur 11 Sudoeste 0 -- -- 44
2019-08-06 14:00:00 29.2 3 Nordeste 12 Sudoeste 0 -- -- 46
2019-08-06 13:00:00 27.1 6 Sur 14 Sur 0 -- -- 52
2019-08-06 12:00:00 26.5 4 Sur 18 Sudeste 0 -- -- 55
2019-08-06 11:00:00 24.4 8 Sudeste 14 Sudeste 0 -- -- 60
2019-08-06 10:00:00 22.3 4 Nordeste 9 Oeste 0 -- -- 71
2019-08-06 09:00:00 21 4 Oeste 7 Oeste 0 -- -- 72
2019-08-06 08:00:00 17.5 3 Noroeste 6 Noroeste 0 -- -- 85
2019-08-06 07:00:00 16.7 2 Nordeste 11 Noroeste 0 -- -- 87
2019-08-06 06:00:00 17.5 8 Noroeste 11 Noroeste 0 -- -- 85
2019-08-06 05:00:00 18.3 9 Noroeste 13 Noroeste 0 -- -- 82
2019-08-06 04:00:00 18.7 8 Oeste 13 Noroeste 0 -- -- 79
2019-08-06 03:00:00 19.7 10 Noroeste 19 Noroeste 0 -- -- 76
2019-08-06 02:00:00 20.3 10 Noroeste 27 Noroeste 0 -- -- 73
2019-08-06 01:00:00 20.8 14 Noroeste 24 Noroeste 0 -- -- 71
2019-08-06 00:00:00 22.3 9 Noroeste 19 Noroeste 0 -- -- 63
2019-08-05 23:00:00 22.5 11 Noroeste 21 Noroeste 0 -- -- 63
2019-08-05 22:00:00 22.8 8 Norte 24 Noroeste 0 -- -- 65
2019-08-05 21:00:00 24.2 14 Norte 31 Norte 0 -- -- 62
2019-08-05 20:00:00 26.9 15 Norte 28 Norte 0 -- -- 55
2019-08-05 19:00:00 29.6 14 Norte 27 Noroeste 0 -- -- 49
2019-08-05 18:00:00 33.8 5 Sudoeste 12 Oeste 0 -- -- 35
2019-08-05 17:00:00 32.4 7 Sudeste 14 Sudeste 0 -- -- 40
2019-08-05 16:00:00 31.1 4 Norte 12 Sudeste 0 -- -- 42
2019-08-05 15:00:00 30.8 5 Sur 17 Sudeste 0 -- -- 44
2019-08-05 14:00:00 29 8 Sur 19 Sudeste 0 -- -- 47
2019-08-05 13:00:00 28 8 Sudeste 20 Sudeste 0 -- -- 51
2019-08-05 12:00:00 26.7 6 Sudeste 13 Este 0 -- -- 53
2019-08-05 11:00:00 24.8 3 Sur 9 Sur 0 -- -- 58
2019-08-05 10:00:00 22.6 2 Norte 13 Noroeste 0 -- -- 66
2019-08-05 09:00:00 20.2 8 Noroeste 14 Noroeste 0 -- -- 74
2019-08-05 08:00:00 17.9 7 Oeste 13 Noroeste 0 -- -- 82
2019-08-05 07:00:00 17.4 9 Noroeste 16 Noroeste 0 -- -- 83
2019-08-05 06:00:00 18.1 9 Noroeste 17 Noroeste 0 -- -- 80
2019-08-05 05:00:00 18.7 10 Noroeste 17 Noroeste 0 -- -- 78
2019-08-05 04:00:00 19.1 10 Noroeste 22 Noroeste 0 -- -- 77
2019-08-05 03:00:00 19.4 12 Noroeste 29 Noroeste 0 -- -- 75
2019-08-05 02:00:00 20 14 Noroeste 30 Noroeste 0 -- -- 72
2019-08-05 01:00:00 20.3 13 Noroeste 31 Noroeste 0 -- -- 72
2019-08-05 00:00:00 20.7 15 Noroeste 33 Noroeste 0 -- -- 71
2019-08-04 23:00:00 21 19 Noroeste 40 Noroeste 0 -- -- 70
2019-08-04 22:00:00 22.6 19 Noroeste 30 Norte 0 -- -- 64
2019-08-04 21:00:00 24.4 14 Norte 28 Norte 0 -- -- 60
2019-08-04 20:00:00 26.7 12 Norte 32 Norte 0 -- -- 56
2019-08-04 19:00:00 28.8 20 Norte 38 Noroeste 0 -- -- 50
2019-08-04 18:00:00 32.7 13 Norte 24 Norte 0 -- -- 43
2019-08-04 17:00:00 33.5 8 Noroeste 15 Norte 0 -- -- 31
2019-08-04 16:00:00 32 3 Norte 10 Este 0 -- -- 31
2019-08-04 15:00:00 30.8 3 Este 14 Sudeste 0 -- -- 43
2019-08-04 14:00:00 29.9 6 Sur 13 Sudoeste 0 -- -- 42
2019-08-04 13:00:00 28.7 5 Sur 15 Sur 0 -- -- 45
2019-08-04 12:00:00 27.7 6 Sur 17 Sur 0 -- -- 48
2019-08-04 11:00:00 26.3 5 Sudeste 11 Sudeste 0 -- -- 50
2019-08-04 10:00:00 24.4 2 Norte 12 Noroeste 0 -- -- 57
2019-08-04 09:00:00 21.7 6 Noroeste 12 Norte 0 -- -- 69
2019-08-04 08:00:00 19.6 6 Noroeste 12 Noroeste 0 -- -- 76
2019-08-04 07:00:00 18.7 5 Noroeste 10 Noroeste 0 -- -- 79
2019-08-04 06:00:00 18.8 4 Oeste 6 Noroeste 0 -- -- 79
2019-08-04 05:00:00 19.5 3 Nordeste 8 Noroeste 0 -- -- 77
2019-08-04 04:00:00 20.9 6 Noroeste 12 Noroeste 0 -- -- 71
2019-08-04 03:00:00 21.6 9 Noroeste 15 Noroeste 0 -- -- 70
2019-08-04 02:00:00 22.7 10 Noroeste 15 Noroeste 0 -- -- 62
2019-08-04 01:00:00 23 5 Noroeste 9 Noroeste 0 -- -- 58
2019-08-04 00:00:00 25.6 4 Sudoeste 11 Sur 0 -- -- 50
2019-08-03 23:00:00 26.4 3 Sudeste 22 Norte 0 -- -- 51
2019-08-03 22:00:00 26.9 13 Norte 23 Norte 0 -- -- 53
2019-08-03 21:00:00 28.2 12 Norte 26 Noroeste 0 -- -- 53
2019-08-03 20:00:00 30.8 12 Norte 27 Noroeste 0 -- -- 43
2019-08-03 19:00:00 33.4 3 Sur 8 Sur 0 -- -- 30
2019-08-03 18:00:00 33.8 3 Norte 7 Sudeste 0 -- -- 32
2019-08-03 17:00:00 33 6 Este 13 Sudeste 0 -- -- 30
2019-08-03 16:00:00 32.4 6 Sudeste 18 Sudeste 0 -- -- 32
2019-08-03 15:00:00 31.2 9 Sudeste 19 Sur 0 -- -- 32
2019-08-03 14:00:00 30.2 10 Sudeste 24 Sur 0 -- -- 37
2019-08-03 13:00:00 28.3 8 Sur 18 Este 0 -- -- 44
2019-08-03 12:00:00 26 4 Sudeste 15 Sudeste 0 -- -- 51
2019-08-03 11:00:00 24.7 6 Sur 13 Sudeste 0 -- -- 50
2019-08-03 10:00:00 21.8 3 Noroeste 6 Noroeste 0 -- -- 58
2019-08-03 09:00:00 18.7 3 Norte 6 Noroeste 0 -- -- 72
2019-08-03 08:00:00 15.9 4 Noroeste 8 Oeste 0 -- -- 80
2019-08-03 07:00:00 13.6 0 Calma 12 Noroeste 0 -- -- 87
2019-08-03 06:00:00 15.8 7 Oeste 10 Noroeste 0 -- -- 80
2019-08-03 05:00:00 16.2 7 Noroeste 10 Noroeste 0 -- -- 77
2019-08-03 04:00:00 16.7 3 Oeste 21 Noroeste 0 -- -- 81
2019-08-03 03:00:00 17.7 11 Noroeste 19 Noroeste 0 -- -- 80
2019-08-03 02:00:00 18.6 11 Noroeste 32 Oeste 0 -- -- 77
2019-08-03 01:00:00 19.2 20 Noroeste 25 Noroeste 0 -- -- 73
2019-08-03 00:00:00 20.3 11 Noroeste 29 Noroeste 0 -- -- 69
2019-08-02 23:00:00 21.3 15 Noroeste 25 Oeste 0 -- -- 66
2019-08-02 22:00:00 22.4 14 Norte 25 Noroeste 0 -- -- 61
2019-08-02 21:00:00 24.4 13 Noroeste 26 Norte 0 -- -- 53
2019-08-02 20:00:00 26.6 12 Norte 24 Norte 0 -- -- 46
2019-08-02 19:00:00 27.9 11 Norte 27 Norte 0 -- -- 44
2019-08-02 18:00:00 29 12 Norte 25 Noroeste 0 -- -- 37
2019-08-02 17:00:00 29.2 14 Norte 28 Noroeste 0 -- -- 37
2019-08-02 16:00:00 28.6 14 Norte 24 Norte 0 -- -- 41
2019-08-02 15:00:00 27.8 13 Norte 24 Norte 0 -- -- 43
2019-08-02 14:00:00 26.8 10 Norte 23 Noroeste 0 -- -- 43
2019-08-02 13:00:00 25.7 10 Noroeste 22 Norte 0 -- -- 48
2019-08-02 12:00:00 24.2 10 Noroeste 23 Noroeste 0 -- -- 54
2019-08-02 11:00:00 23 10 Noroeste 18 Noroeste 0 -- -- 59
2019-08-02 10:00:00 21.2 9 Noroeste 18 Noroeste 0 -- -- 66
2019-08-02 09:00:00 19.5 8 Norte 17 Noroeste 0 -- -- 72
2019-08-02 08:00:00 17.7 12 Noroeste 16 Noroeste 0 -- -- 79
2019-08-02 07:00:00 16.9 7 Noroeste 15 Norte 0 -- -- 81
2019-08-02 06:00:00 17.2 10 Noroeste 22 Noroeste 0 -- -- 80
2019-08-02 05:00:00 17.6 14 Noroeste 31 Noroeste 0 -- -- 78
2019-08-02 04:00:00 17.9 13 Noroeste 27 Noroeste 0 -- -- 78
2019-08-02 03:00:00 17.9 12 Noroeste 23 Noroeste 0 -- -- 80
2019-08-02 02:00:00 18.4 12 Noroeste 32 Noroeste 0 -- -- 79
2019-08-02 01:00:00 18.6 13 Noroeste 28 Noroeste 0 -- -- 78
2019-08-02 00:00:00 18.9 13 Noroeste 27 Norte 0 -- -- 76
2019-08-01 23:00:00 19.3 13 Noroeste 36 Noroeste 0 -- -- 75
2019-08-01 22:00:00 19.9 16 Noroeste 35 Noroeste 0 -- -- 74
2019-08-01 21:00:00 21.2 17 Noroeste 41 Noroeste 0 -- -- 70
2019-08-01 20:00:00 23.6 16 Norte 44 Norte 0 -- -- 63
2019-08-01 19:00:00 26.3 22 Norte 33 Noroeste 0 -- -- 58
2019-08-01 18:00:00 29.4 5 Sudoeste 12 Sudoeste 0 -- -- 49
2019-08-01 17:00:00 29.2 3 Sudeste 14 Sudeste 0 -- -- 45
2019-08-01 16:00:00 28.5 9 Sudeste 16 Sudeste 0 -- -- 49
2019-08-01 15:00:00 27.6 6 Sur 20 Sudeste 0 -- -- 49
2019-08-01 14:00:00 26.3 7 Sur 20 Sur 0 -- -- 56
2019-08-01 13:00:00 24.3 4 Este 17 Este 0 -- -- 60
2019-08-01 12:00:00 21.8 9 Este 18 Este 0 -- -- 68
2019-08-01 11:00:00 19.1 12 Este 27 Sudeste 3 -- -- 81
2019-08-01 10:00:00 19.1 5 Este 12 Este 0.2 -- -- 80
2019-08-01 09:00:00 18.7 3 Norte 17 Noroeste 0.2 -- -- 82
2019-08-01 08:00:00 18.1 9 Norte 18 Norte 0 -- -- 78
2019-08-01 07:00:00 17 6 Noroeste 13 Noroeste 0 -- -- 81
2019-08-01 06:00:00 17.2 5 Oeste 10 Noroeste 0 -- -- 75
2019-08-01 05:00:00 17.5 3 Noroeste 7 Noroeste 0 -- -- 72
2019-08-01 04:00:00 17.9 3 Noroeste 6 Noroeste 0 -- -- 70
2019-08-01 03:00:00 18.5 3 Noroeste 9 Noroeste 0 -- -- 68
2019-08-01 02:00:00 19.1 6 Noroeste 9 Oeste 0 -- -- 64
2019-08-01 01:00:00 19.2 5 Noroeste 11 Noroeste 0 -- -- 63
2019-08-01 00:00:00 19.5 6 Noroeste 16 Norte 0 -- -- 62
2019-07-31 23:00:00 20 8 Norte 16 Norte 0 -- -- 61
2019-07-31 22:00:00 21 8 Norte 18 Norte 0 -- -- 58
2019-07-31 21:00:00 22.7 10 Norte 23 Norte 0 -- -- 54
2019-07-31 20:00:00 25.2 10 Norte 22 Norte 0 -- -- 46
2019-07-31 19:00:00 27.7 5 Norte 17 Norte 0 -- -- 38
2019-07-31 18:00:00 27.4 3 Norte 8 Norte 0 -- -- 32
2019-07-31 17:00:00 26.6 5 Nordeste 10 Norte 0 -- -- 32
2019-07-31 16:00:00 25.8 3 Sudeste 14 Sudeste 0 -- -- 33
2019-07-31 15:00:00 25.5 8 Sur 16 Sudeste 0 -- -- 32
2019-07-31 14:00:00 24.9 4 Sudeste 11 Sudeste 0 -- -- 35
2019-07-31 13:00:00 23.2 3 Noroeste 9 Norte 0 -- -- 39
2019-07-31 12:00:00 21.9 3 Este 9 Nordeste 0 -- -- 45
2019-07-31 11:00:00 19.8 4 Norte 11 Noroeste 0 -- -- 52
2019-07-31 10:00:00 18 5 Norte 12 Oeste 0 -- -- 57
2019-07-31 09:00:00 15.8 9 Noroeste 15 Noroeste 0.2 -- -- 66
2019-07-31 08:00:00 13.5 7 Noroeste 19 Noroeste 0 -- -- 74
2019-07-31 07:00:00 12.1 9 Noroeste 20 Noroeste 0 -- -- 77
2019-07-31 06:00:00 12.6 13 Noroeste 24 Noroeste 0 -- -- 75
2019-07-31 05:00:00 12.9 13 Noroeste 22 Noroeste 0 -- -- 75
2019-07-31 04:00:00 13.3 13 Noroeste 22 Noroeste 0 -- -- 74
2019-07-31 03:00:00 13.8 10 Noroeste 24 Noroeste 0 -- -- 73
2019-07-31 02:00:00 14.4 12 Noroeste 20 Noroeste 0 -- -- 71
2019-07-31 01:00:00 14.8 10 Noroeste 28 Noroeste 0 -- -- 70
2019-07-31 00:00:00 15.3 13 Noroeste 37 Noroeste 0.4 -- -- 68
2019-07-30 23:00:00 15.7 19 Noroeste 41 Norte 0.2 -- -- 64
2019-07-30 22:00:00 16.6 18 Norte 47 Norte 0 -- -- 59
2019-07-30 21:00:00 17.6 22 Norte 41 Norte 0 -- -- 52
2019-07-30 20:00:00 19.3 22 Norte 39 Norte 0 -- -- 48
2019-07-30 19:00:00 20.3 23 Norte 43 Norte 0 -- -- 45
2019-07-30 18:00:00 21.6 21 Norte 40 Noroeste 0 -- -- 42
2019-07-30 17:00:00 22 21 Norte 41 Norte 0 -- -- 41
2019-07-30 16:00:00 22.2 19 Norte 36 Norte 0 -- -- 44
2019-07-30 15:00:00 22.1 21 Norte 41 Norte 0 -- -- 47
2019-07-30 14:00:00 21.5 19 Norte 35 Norte 0 -- -- 46
2019-07-30 13:00:00 21.5 16 Norte 31 Norte 0 -- -- 50
2019-07-30 12:00:00 20.2 14 Norte 32 Noroeste 0 -- -- 54
2019-07-30 11:00:00 -- -- -- -- -- -- -- -- --
2019-07-30 10:00:00 18.1 20 Norte 36 Norte 0 -- -- 53
2019-07-30 09:00:00 17.1 15 Norte 33 Norte 0 -- -- 58
2019-07-30 08:00:00 16.2 11 Noroeste 31 Noroeste 0 -- -- 60
2019-07-30 07:00:00 15.7 14 Norte 28 Norte 0 -- -- 61
2019-07-30 06:00:00 16 17 Norte 38 Norte 0 -- -- 58
2019-07-30 05:00:00 16.2 16 Noroeste 33 Norte 0 -- -- 63
2019-07-30 04:00:00 16.3 16 Noroeste 36 Noroeste 0 -- -- 62
2019-07-30 03:00:00 16.4 17 Norte 35 Noroeste 0 -- -- 62
2019-07-30 02:00:00 16.9 19 Noroeste 40 Noroeste 0 -- -- 64
2019-07-30 01:00:00 17.2 14 Norte 30 Norte 0 -- -- 64
2019-07-30 00:00:00 17.8 15 Norte 30 Norte 0 -- -- 60
2019-07-29 23:00:00 18.2 14 Norte 39 Noroeste 0 -- -- 58
2019-07-29 22:00:00 18.7 19 Norte 48 Norte 0 -- -- 60
2019-07-29 21:00:00 20.2 23 Norte 46 Norte 0 -- -- 58
2019-07-29 20:00:00 22.3 22 Norte 45 Noroeste 0 -- -- 52
2019-07-29 19:00:00 25.4 22 Norte 46 Norte 0 -- -- 44
2019-07-29 18:00:00 29.2 17 Norte 33 Norte 0 -- -- 32
2019-07-29 17:00:00 31 5 Nordeste 12 Este 0 -- -- 20
2019-07-29 16:00:00 30.6 5 Norte 13 Sudeste 0 -- -- 20
2019-07-29 15:00:00 29.8 5 Sudeste 17 Sudeste 0 -- -- 18
2019-07-29 14:00:00 28.4 6 Sudeste 16 Sudeste 0 -- -- 22
2019-07-29 13:00:00 26.9 7 Sudeste 17 Sudeste 0 -- -- 29
2019-07-29 12:00:00 25.3 8 Sur 15 Sur 0 -- -- 29
2019-07-29 11:00:00 23.5 5 Sur 9 Sur 0 -- -- 34
2019-07-29 10:00:00 21.7 3 Sudeste 7 Sudeste 0 -- -- 41
2019-07-29 09:00:00 18.1 2 Noroeste 4 Noroeste 0 -- -- 50
2019-07-29 08:00:00 14.3 2 Noroeste 8 Oeste 0 -- -- 63
2019-07-29 07:00:00 12.7 4 Noroeste 9 Noroeste 0 -- -- 63
2019-07-29 06:00:00 12.1 3 Noroeste 6 Noroeste 0 -- -- 64
2019-07-29 05:00:00 12 3 Oeste 6 Oeste 0 -- -- 67
2019-07-29 04:00:00 13 3 Noroeste 7 Noroeste 0 -- -- 64
2019-07-29 03:00:00 12.7 2 Noroeste 5 Oeste 0 -- -- 69
2019-07-29 02:00:00 13.4 0 Calma 6 Este 0 -- -- 68
2019-07-29 01:00:00 14.9 0 Calma 8 Oeste 0 -- -- 58
2019-07-29 00:00:00 17 5 Oeste 11 Noroeste 0 -- -- 48
2019-07-28 23:00:00 18.2 6 Oeste 9 Oeste 0 -- -- 46
2019-07-28 22:00:00 19.7 3 Noroeste 10 Norte 0 -- -- 42
2019-07-28 21:00:00 21.4 7 Norte 21 Norte 0 -- -- 37
2019-07-28 20:00:00 22.5 8 Norte 32 Norte 0 -- -- 38
2019-07-28 19:00:00 23.7 15 Norte 32 Norte 0 -- -- 32
2019-07-28 18:00:00 23.6 14 Norte 32 Norte 0 -- -- 34
2019-07-28 17:00:00 23.4 12 Norte 31 Norte 0 -- -- 37
2019-07-28 16:00:00 23 13 Norte 31 Noroeste 0 -- -- 39
2019-07-28 15:00:00 22.3 14 Norte 26 Noroeste 0 -- -- 38
2019-07-28 14:00:00 21.1 12 Norte 27 Norte 0 -- -- 45
2019-07-28 13:00:00 20.9 13 Norte 29 Noroeste 0.2 -- -- 51
2019-07-28 12:00:00 20.3 17 Noroeste 30 Noroeste 0 -- -- 44
2019-07-28 11:00:00 19.7 10 Noroeste 28 Noroeste 0 -- -- 50
2019-07-28 10:00:00 17.4 13 Noroeste 23 Noroeste 0 -- -- 59
2019-07-28 09:00:00 15.6 7 Oeste 14 Oeste 0.2 -- -- 69
2019-07-28 08:00:00 14.7 7 Noroeste 18 Noroeste 0 -- -- 71
2019-07-28 07:00:00 13.6 12 Noroeste 19 Oeste 0 -- -- 75
2019-07-28 06:00:00 13.2 3 Oeste 9 Oeste 0 -- -- 76
2019-07-28 05:00:00 14.3 3 Noroeste 17 Norte 0.2 -- -- 76
2019-07-28 04:00:00 15.1 9 Noroeste 26 Noroeste 0 -- -- 67
2019-07-28 03:00:00 15.1 9 Noroeste 24 Noroeste 0 -- -- 66
2019-07-28 02:00:00 14.6 14 Noroeste 23 Oeste 0 -- -- 66
2019-07-28 01:00:00 14.4 8 Noroeste 15 Noroeste 0 -- -- 69
2019-07-28 00:00:00 14.7 3 Sudoeste 17 Noroeste 0 -- -- 67
2019-07-27 23:00:00 15.7 9 Noroeste 33 Norte 0.2 -- -- 63
2019-07-26 12:00:00 -- -- -- -- -- -- -- -- --
2019-07-26 11:00:00 -- -- -- -- -- -- -- -- --
2019-07-26 10:00:00 -- -- -- -- -- -- -- -- --
2019-07-26 09:00:00 21 18 Noroeste 27 Oeste 0.2 -- -- 72
2019-07-26 08:00:00 22.4 3 Sudeste 16 Norte 0 -- -- 58
2019-07-26 07:00:00 21 11 Norte 28 Norte 0 -- -- 66
2019-07-26 06:00:00 20.6 17 Norte 41 Noroeste 0 -- -- 69
2019-07-26 05:00:00 20.8 22 Noroeste 34 Noroeste 0 -- -- 68
2019-07-26 04:00:00 21.7 17 Noroeste 28 Noroeste 0 -- -- 66
2019-07-26 03:00:00 22.2 12 Noroeste 26 Noroeste 0.2 -- -- 66
2019-07-26 02:00:00 22.7 15 Noroeste 27 Noroeste 0 -- -- 63
2019-07-26 01:00:00 23.3 9 Norte 28 Norte 0 -- -- 57
2019-07-26 00:00:00 23.6 15 Norte 27 Norte 0 -- -- 56
2019-07-25 23:00:00 29.2 4 Sur 23 Sudeste 0 -- -- 24
2019-07-25 22:00:00 30.2 15 Sudeste 28 Sudeste 0 -- -- 22
2019-07-25 21:00:00 30.6 4 Sudeste 24 Sudeste 0 -- -- 27
2019-07-25 20:00:00 32.1 12 Sudeste 31 Sudeste 0 -- -- 21
2019-07-25 19:00:00 32.7 17 Sudeste 52 Sur 0 -- -- 23
2019-07-25 18:00:00 36.1 18 Sudeste 30 Sudeste 0 -- -- 17
2019-07-25 17:00:00 35.8 15 Sudeste 32 Sudeste 0 -- -- 17
2019-07-25 16:00:00 35.4 16 Sudeste 30 Sudeste 0 -- -- 18
2019-07-25 15:00:00 34.4 18 Sudeste 30 Sudeste 0 -- -- 20
2019-07-25 14:00:00 33.5 16 Sudeste 34 Sudeste 0 -- -- 20
2019-07-25 13:00:00 32.5 19 Sudeste 34 Sudeste 0 -- -- 21
2019-07-25 12:00:00 31.2 20 Sudeste 33 Sudeste 0 -- -- 23
2019-07-25 11:00:00 29.4 18 Sudeste 28 Sudeste 0 -- -- 29
2019-07-25 10:00:00 27.4 12 Sudeste 19 Sur 0 -- -- 35
2019-07-25 09:00:00 24.6 5 Sur 13 Sur 0 -- -- 43
2019-07-25 08:00:00 24.6 8 Sur 17 Sur 0 -- -- 41
2019-07-25 07:00:00 23.5 8 Sur 15 Sur 0 -- -- 42
2019-07-25 06:00:00 22 2 Sudoeste 5 Sur 0 -- -- 51
2019-07-25 05:00:00 26.2 4 Sur 12 Sudeste 0 -- -- 33
2019-07-25 04:00:00 27.3 8 Sudeste 19 Sudeste 0 -- -- 30
2019-07-25 03:00:00 27.8 9 Sudeste 20 Sudeste 0 -- -- 29
2019-07-25 02:00:00 27.5 9 Sudeste 14 Este 0 -- -- 29
2019-07-25 01:00:00 26.2 3 Sudeste 15 Sudeste 0 -- -- 37
2019-07-25 00:00:00 27.8 4 Sudeste 13 Sudeste 0 -- -- 29
2019-07-24 23:00:00 28.8 8 Este 13 Este 0 -- -- 26
2019-07-24 22:00:00 29.2 4 Sudeste 13 Sudeste 0 -- -- 30
2019-07-24 21:00:00 32 8 Sudeste 21 Sudeste 0 -- -- 20
2019-07-24 20:00:00 34.7 13 Sur 37 Sudeste 0 -- -- 14
2019-07-24 19:00:00 35.8 15 Sudeste 28 Sudeste 0 -- -- 13
2019-07-24 18:00:00 36.4 17 Sudeste 26 Sudeste 0 -- -- 13
2019-07-24 17:00:00 36.2 11 Sudeste 21 Sur 0 -- -- 15
2019-07-24 16:00:00 35.3 12 Sudeste 23 Sur 0 -- -- 20
2019-07-24 15:00:00 34.1 9 Sudeste 17 Sudeste 0 -- -- 22
2019-07-24 14:00:00 31.6 6 Sudeste 14 Sudeste 0 -- -- 28
2019-07-24 13:00:00 29.5 8 Sur 16 Sudeste 0 -- -- 34
2019-07-24 12:00:00 29.9 13 Sudeste 21 Sudeste 0 -- -- 27
2019-07-24 11:00:00 28.6 4 Sudeste 8 Sudeste 0 -- -- 34
2019-07-24 10:00:00 25.5 3 Sur 8 Sur 0 -- -- 48
2019-07-24 09:00:00 22.6 4 Oeste -- -- -- -- -- 59
2019-07-24 08:00:00 20 0 Calma 3 Este 0 -- -- 67
2019-07-24 07:00:00 19.3 3 Oeste 8 Noroeste 0 -- -- 67
2019-07-24 06:00:00 19.5 6 Oeste 9 Oeste 0 -- -- 66
2019-07-24 05:00:00 20.1 2 Sur 8 Noroeste 0 -- -- 65
2019-07-24 04:00:00 21.3 3 Norte 8 Sudoeste 0 -- -- 59
2019-07-24 03:00:00 23 4 Nordeste 10 Norte 0 -- -- 52
2019-07-24 02:00:00 25.1 0 Calma 21 Noroeste 0 -- -- 41
2019-07-24 01:00:00 26.3 16 Noroeste 32 Oeste 0.2 -- -- 35
2019-07-24 00:00:00 26.1 5 Noroeste 18 Noroeste 0 -- -- 39
2019-07-23 23:00:00 28 4 Nordeste 22 Nordeste 0.2 -- -- 32
2019-07-23 22:00:00 25.5 12 Norte 45 Oeste 0.2 -- -- 41
2019-07-23 21:00:00 26.9 21 Noroeste 54 Noroeste 1.4 -- -- 38
2019-07-23 20:00:00 34.5 9 Sudeste 23 Sudeste 0 -- -- 17
2019-07-23 19:00:00 36.4 12 Sudeste 20 Este 0 -- -- 15
2019-07-23 18:00:00 36.9 10 Sudeste 26 Este 0 -- -- 14
2019-07-23 17:00:00 36.6 10 Sudeste 22 Sudeste 0 -- -- 12
2019-07-23 16:00:00 36.4 12 Sudeste 25 Sudeste 0 -- -- 12
2019-07-23 15:00:00 35.8 12 Sudeste 22 Sur 0 -- -- 13
2019-07-23 14:00:00 34.6 9 Sur 27 Sudeste 0 -- -- 14
2019-07-23 13:00:00 33.3 14 Sudeste 27 Sudeste 0 -- -- 15
2019-07-23 12:00:00 32.2 14 Sudeste 25 Sudeste 0 -- -- 16
2019-07-23 11:00:00 30.8 8 Sur 22 Sudeste 0 -- -- 25
2019-07-23 10:00:00 28.6 13 Sudeste 21 Sudeste 0 -- -- 25
2019-07-23 09:00:00 25.5 6 Sudeste 14 Sudeste 0 -- -- 31
2019-07-23 08:00:00 21.7 3 Este 9 Sur 0 -- -- 51
2019-07-23 07:00:00 22.6 5 Sur 10 Sur 0 -- -- 33
2019-07-23 06:00:00 23.4 4 Sudeste 13 Sur 0 -- -- 35
2019-07-23 05:00:00 23.6 5 Sur 10 Sudeste 0 -- -- 33
2019-07-23 04:00:00 23.8 6 Sudeste 9 Sudeste 0 -- -- 35
2019-07-23 03:00:00 26.5 6 Sur 18 Sudeste 0 -- -- 28
2019-07-23 02:00:00 28.6 13 Sudeste 22 Sudeste 0 -- -- 23
2019-07-23 01:00:00 29.3 8 Sudeste 20 Sudeste 0 -- -- 23
2019-07-23 00:00:00 29.2 11 Sudeste 22 Sudeste 0 -- -- 24
2019-07-22 23:00:00 26.8 7 Sudeste 9 Sudeste 0 -- -- 29
2019-07-22 22:00:00 28.9 4 Sudeste 16 Este 0 -- -- 28
2019-07-22 21:00:00 32.5 8 Sudeste 21 Sudeste 0 -- -- 19
2019-07-22 20:00:00 34.9 12 Sudeste 22 Este 0 -- -- 16
2019-07-22 19:00:00 35.7 11 Sudeste 22 Este 0 -- -- 15
2019-07-22 18:00:00 36.2 14 Sudeste 25 Este 0 -- -- 13
2019-07-22 17:00:00 36.1 14 Sudeste 26 Sudeste 0 -- -- 15
2019-07-22 16:00:00 35.5 12 Sudeste 27 Sudeste 0 -- -- 15
2019-07-22 15:00:00 34.2 13 Sudeste 26 Sudeste 0 -- -- 18
2019-07-22 14:00:00 33.1 14 Sudeste 27 Sudeste 0 -- -- 19
2019-07-22 13:00:00 31.9 11 Sudeste 27 Sudeste 0 -- -- 21
2019-07-22 12:00:00 30 15 Sudeste 27 Sudeste 0 -- -- 26
2019-07-22 11:00:00 28.5 12 Sudeste 19 Sudeste 0 -- -- 35
2019-07-22 10:00:00 26.4 10 Sudeste 18 Sudeste 0 -- -- 36
2019-07-22 09:00:00 22.9 0 Calma 7 Oeste 0 -- -- 63
2019-07-22 08:00:00 21 4 Noroeste 8 Oeste 0 -- -- 71
2019-07-22 07:00:00 20 2 Noroeste 8 Norte 0 -- -- 76
2019-07-22 06:00:00 20.5 3 Noroeste 8 Oeste 0 -- -- 73
2019-07-22 05:00:00 21.3 2 Noroeste 10 Noroeste 0 -- -- 71
2019-07-22 04:00:00 22.1 7 Oeste 13 Noroeste 0 -- -- 67
2019-07-22 03:00:00 21.8 3 Sudoeste 12 Noroeste 0 -- -- 70
2019-07-22 02:00:00 22.3 8 Noroeste 21 Oeste 0 -- -- 67
2019-07-22 01:00:00 24.2 13 Noroeste 20 Oeste 0 -- -- 58
2019-07-22 00:00:00 25.3 5 Sudoeste 27 Noroeste 0 -- -- 53
2019-07-21 23:00:00 24.1 13 Norte 38 Oeste 0 -- -- 59
2019-07-21 22:00:00 25.3 14 Noroeste 28 Norte 0 -- -- 53
2019-07-21 21:00:00 27 16 Norte 30 Norte 0 -- -- 49
2019-07-21 20:00:00 32 8 Norte 15 Norte 0 -- -- 36
2019-07-21 19:00:00 33.7 10 Sudeste 15 Sudeste 0 -- -- 25
2019-07-21 18:00:00 33.8 6 Este 21 Sudeste 0 -- -- 27
2019-07-21 17:00:00 33.1 10 Sudeste 19 Sudeste 0 -- -- 29
2019-07-21 16:00:00 32 10 Sudeste 22 Sudeste 0 -- -- 28
2019-07-21 15:00:00 31.1 12 Sudeste 24 Sudeste 0 -- -- 31
2019-07-21 14:00:00 30.1 12 Sudeste 28 Sudeste 0 -- -- 35
2019-07-21 13:00:00 28.5 15 Sudeste 26 Sudeste 0 -- -- 39
2019-07-21 12:00:00 27 13 Sudeste 21 Sudeste 0 -- -- 44
2019-07-21 11:00:00 25.3 10 Sudeste 18 Sudeste 0 -- -- 49
2019-07-21 10:00:00 23.7 5 Sudeste 9 Sudeste 0 -- -- 57
2019-07-21 09:00:00 21.3 0 Calma 9 Noroeste 0 -- -- 64
2019-07-21 08:00:00 19.5 5 Noroeste 9 Noroeste 0 -- -- 71
2019-07-21 07:00:00 18.9 5 Oeste 10 Noroeste 0 -- -- 73
2019-07-21 06:00:00 19.1 6 Noroeste 15 Noroeste 0 -- -- 71
2019-07-21 05:00:00 19.5 8 Noroeste 17 Norte 0 -- -- 70
2019-07-21 04:00:00 19.8 8 Noroeste 17 Noroeste 0 -- -- 69
2019-07-21 03:00:00 19.9 9 Noroeste 24 Noroeste 0 -- -- 69
2019-07-21 02:00:00 20.2 13 Noroeste 30 Noroeste 0 -- -- 68
2019-07-21 01:00:00 20.5 14 Noroeste 32 Noroeste 0 -- -- 66
2019-07-21 00:00:00 20.7 19 Noroeste 37 Noroeste 0 -- -- 65
2019-07-20 23:00:00 21.8 19 Noroeste 33 Noroeste 0 -- -- 62
2019-07-20 22:00:00 23.3 11 Norte 26 Noroeste 0 -- -- 57
2019-07-20 21:00:00 25.2 16 Norte 42 Noroeste 0 -- -- 51
2019-07-20 20:00:00 25.9 17 Norte 35 Noroeste 0 -- -- 50
2019-07-20 19:00:00 28 20 Norte 40 Norte 0 -- -- 44
2019-07-20 18:00:00 30.3 17 Norte 34 Norte 0 -- -- 41
2019-07-20 17:00:00 33.7 0 Calma 12 Norte 0 -- -- 27
2019-07-20 16:00:00 33 8 Sudeste 20 Sur 0 -- -- 26
2019-07-20 15:00:00 31.9 8 Sudeste 22 Sur 0 -- -- 28
2019-07-20 14:00:00 31 11 Sudeste 28 Sudeste 0 -- -- 32
2019-07-20 13:00:00 29.6 13 Sudeste 25 Sudeste 0 -- -- 37
2019-07-20 12:00:00 28.2 12 Sudeste 26 Sudeste 0 -- -- 40
2019-07-20 11:00:00 26.5 14 Sudeste 26 Sudeste 0 -- -- 46
2019-07-20 10:00:00 24.7 5 Este 12 Este 0 -- -- 51
2019-07-20 09:00:00 23 2 Nordeste 6 Noroeste 0 -- -- 53
2019-07-20 08:00:00 19.4 3 Noroeste 7 Norte 0 -- -- 67
2019-07-20 07:00:00 18.3 5 Norte 8 Noroeste 0 -- -- 69
2019-07-20 06:00:00 19.2 2 Noroeste 12 Sudeste 0 -- -- 64
2019-07-20 05:00:00 21.6 6 Sur 15 Sur 0 -- -- 50
2019-07-20 04:00:00 23.1 3 Sur 14 Sudeste 0 -- -- 46
2019-07-20 03:00:00 23.9 4 Sur 20 Sur 0 -- -- 46
2019-07-20 02:00:00 25.5 7 Sur 14 Sudeste 0 -- -- 41
2019-07-20 01:00:00 24.6 8 Sudeste 13 Sudeste 0 -- -- 49
2019-07-20 00:00:00 25 5 Sudeste 14 Sudeste 0 -- -- 48
2019-07-19 23:00:00 26.7 10 Sudeste 18 Sudeste 0 -- -- 41
2019-07-19 22:00:00 27.9 6 Sudeste 11 Sudeste 0 -- -- 37
2019-07-19 21:00:00 30 6 Sudeste 13 Sur 0 -- -- 32
2019-07-19 20:00:00 32.3 10 Sudeste 19 Sur 0 -- -- 26
2019-07-19 19:00:00 31.7 12 Sudeste 18 Sudeste 0 -- -- 25
2019-07-19 18:00:00 32.8 9 Sur 22 Sudeste 0 -- -- 24
2019-07-19 17:00:00 32.2 11 Sudeste 24 Sudeste 0 -- -- 25
2019-07-19 16:00:00 31.4 12 Sudeste 21 Este 0 -- -- 23
2019-07-19 15:00:00 30.2 10 Sudeste 25 Sudeste 0 -- -- 24
2019-07-19 14:00:00 28.6 10 Sudeste 26 Sudeste 0 -- -- 32
2019-07-19 13:00:00 27 12 Sudeste 24 Sudeste 0 -- -- 40
2019-07-19 12:00:00 24.9 12 Sudeste 22 Sudeste 0 -- -- 48
2019-07-19 11:00:00 23.4 8 Sudeste 15 Sudeste 0 -- -- 48
2019-07-19 10:00:00 20.6 2 Norte 5 Nordeste 0 -- -- 48
2019-07-19 09:00:00 17.7 4 Norte 13 Noroeste 0 -- -- 55
2019-07-19 08:00:00 15.9 8 Oeste 10 Oeste 0 -- -- 59
2019-07-19 07:00:00 14.8 6 Noroeste 19 Noroeste 0 -- -- 63
2019-07-19 06:00:00 15.4 11 Noroeste 21 Noroeste 0 -- -- 63
2019-07-19 05:00:00 15.7 10 Noroeste 20 Noroeste 0 -- -- 63
2019-07-19 04:00:00 16.5 8 Noroeste 27 Noroeste 0 -- -- 57
2019-07-19 03:00:00 17.5 17 Noroeste 35 Noroeste 0 -- -- 54
2019-07-19 02:00:00 17.6 16 Noroeste 32 Noroeste 0 -- -- 55
2019-07-19 01:00:00 18 13 Noroeste 27 Noroeste 0 -- -- 57
2019-07-19 00:00:00 18.6 16 Noroeste 26 Noroeste 0 -- -- 57